sensor_id;sensor_type;location;lat;lon;timestamp;P1;durP1;ratioP1;P2;durP2;ratioP2
30681;SDS011;17439;48.092;11.842;2023-03-19T00:02:13;9.15;;;4.13;;
30681;SDS011;17439;48.092;11.842;2023-03-19T00:04:44;9.13;;;4.30;;
30681;SDS011;17439;48.092;11.842;2023-03-19T00:07:11;15.88;;;4.78;;
30681;SDS011;17439;48.092;11.842;2023-03-19T00:09:38;12.18;;;4.20;;
30681;SDS011;17439;48.092;11.842;2023-03-19T00:12:04;11.50;;;4.63;;
30681;SDS011;17439;48.092;11.842;2023-03-19T00:14:31;10.00;;;5.25;;
30681;SDS011;17439;48.092;11.842;2023-03-19T00:16:58;9.95;;;4.28;;
30681;SDS011;17439;48.092;11.842;2023-03-19T00:19:24;14.07;;;5.20;;
30681;SDS011;17439;48.092;11.842;2023-03-19T00:21:51;18.45;;;7.35;;
30681;SDS011;17439;48.092;11.842;2023-03-19T00:24:17;10.55;;;5.05;;
30681;SDS011;17439;48.092;11.842;2023-03-19T00:26:44;8.35;;;4.32;;
30681;SDS011;17439;48.092;11.842;2023-03-19T00:29:11;11.00;;;5.45;;
30681;SDS011;17439;48.092;11.842;2023-03-19T00:31:38;17.65;;;6.35;;
30681;SDS011;17439;48.092;11.842;2023-03-19T00:34:05;12.80;;;5.97;;
30681;SDS011;17439;48.092;11.842;2023-03-19T00:36:33;14.65;;;5.10;;
30681;SDS011;17439;48.092;11.842;2023-03-19T00:38:59;17.75;;;6.93;;
30681;SDS011;17439;48.092;11.842;2023-03-19T00:41:26;21.42;;;5.95;;
30681;SDS011;17439;48.092;11.842;2023-03-19T00:43:53;12.77;;;5.55;;
30681;SDS011;17439;48.092;11.842;2023-03-19T00:46:21;13.55;;;4.65;;
30681;SDS011;17439;48.092;11.842;2023-03-19T00:48:48;19.33;;;5.10;;
30681;SDS011;17439;48.092;11.842;2023-03-19T00:51:15;17.08;;;6.13;;
30681;SDS011;17439;48.092;11.842;2023-03-19T00:53:42;18.95;;;6.45;;
30681;SDS011;17439;48.092;11.842;2023-03-19T00:56:10;20.50;;;7.47;;
30681;SDS011;17439;48.092;11.842;2023-03-19T00:58:38;18.13;;;7.32;;
30681;SDS011;17439;48.092;11.842;2023-03-19T01:01:09;17.65;;;6.20;;
30681;SDS011;17439;48.092;11.842;2023-03-19T01:03:37;21.52;;;6.22;;
30681;SDS011;17439;48.092;11.842;2023-03-19T01:06:04;16.70;;;5.97;;
30681;SDS011;17439;48.092;11.842;2023-03-19T01:08:31;9.02;;;4.25;;
30681;SDS011;17439;48.092;11.842;2023-03-19T01:11:11;11.50;;;4.32;;
30681;SDS011;17439;48.092;11.842;2023-03-19T01:13:39;6.85;;;3.47;;
30681;SDS011;17439;48.092;11.842;2023-03-19T01:16:06;6.68;;;2.97;;
30681;SDS011;17439;48.092;11.842;2023-03-19T01:18:34;7.22;;;2.30;;
30681;SDS011;17439;48.092;11.842;2023-03-19T01:21:00;6.97;;;2.60;;
30681;SDS011;17439;48.092;11.842;2023-03-19T01:23:28;5.03;;;2.33;;
30681;SDS011;17439;48.092;11.842;2023-03-19T01:25:55;5.60;;;2.60;;
30681;SDS011;17439;48.092;11.842;2023-03-19T01:28:27;6.60;;;3.00;;
30681;SDS011;17439;48.092;11.842;2023-03-19T01:30:57;24.08;;;9.25;;
30681;SDS011;17439;48.092;11.842;2023-03-19T01:33:48;34.30;;;13.07;;
30681;SDS011;17439;48.092;11.842;2023-03-19T01:36:20;30.60;;;11.48;;
30681;SDS011;17439;48.092;11.842;2023-03-19T01:38:57;18.20;;;6.38;;
30681;SDS011;17439;48.092;11.842;2023-03-19T01:41:23;9.30;;;3.78;;
30681;SDS011;17439;48.092;11.842;2023-03-19T01:43:53;8.15;;;2.65;;
30681;SDS011;17439;48.092;11.842;2023-03-19T01:46:39;5.72;;;2.20;;
30681;SDS011;17439;48.092;11.842;2023-03-19T01:49:25;7.25;;;2.20;;
30681;SDS011;17439;48.092;11.842;2023-03-19T01:52:20;4.35;;;2.03;;
30681;SDS011;17439;48.092;11.842;2023-03-19T01:55:12;11.93;;;4.50;;
30681;SDS011;17439;48.092;11.842;2023-03-19T01:57:58;12.57;;;5.45;;
30681;SDS011;17439;48.092;11.842;2023-03-19T02:00:42;7.60;;;4.15;;
30681;SDS011;17439;48.092;11.842;2023-03-19T02:03:09;14.73;;;4.15;;
30681;SDS011;17439;48.092;11.842;2023-03-19T02:05:50;5.50;;;3.05;;
30681;SDS011;17439;48.092;11.842;2023-03-19T02:08:19;8.57;;;3.50;;
30681;SDS011;17439;48.092;11.842;2023-03-19T02:10:49;5.97;;;2.58;;
30681;SDS011;17439;48.092;11.842;2023-03-19T02:13:17;6.07;;;2.83;;
30681;SDS011;17439;48.092;11.842;2023-03-19T02:15:44;5.68;;;2.20;;
30681;SDS011;17439;48.092;11.842;2023-03-19T02:18:11;10.52;;;3.85;;
30681;SDS011;17439;48.092;11.842;2023-03-19T02:20:43;10.85;;;4.13;;
30681;SDS011;17439;48.092;11.842;2023-03-19T02:23:19;8.68;;;3.80;;
30681;SDS011;17439;48.092;11.842;2023-03-19T02:26:08;8.52;;;3.05;;
30681;SDS011;17439;48.092;11.842;2023-03-19T02:28:37;4.63;;;2.90;;
30681;SDS011;17439;48.092;11.842;2023-03-19T02:31:08;6.97;;;2.50;;
30681;SDS011;17439;48.092;11.842;2023-03-19T02:33:36;6.35;;;2.22;;
30681;SDS011;17439;48.092;11.842;2023-03-19T02:36:04;8.55;;;2.30;;
30681;SDS011;17439;48.092;11.842;2023-03-19T02:38:34;10.38;;;2.38;;
30681;SDS011;17439;48.092;11.842;2023-03-19T02:41:04;7.10;;;1.92;;
30681;SDS011;17439;48.092;11.842;2023-03-19T02:43:33;3.95;;;2.22;;
30681;SDS011;17439;48.092;11.842;2023-03-19T02:46:03;5.28;;;2.58;;
30681;SDS011;17439;48.092;11.842;2023-03-19T02:48:32;4.57;;;2.25;;
30681;SDS011;17439;48.092;11.842;2023-03-19T02:50:59;3.85;;;2.03;;
30681;SDS011;17439;48.092;11.842;2023-03-19T02:53:25;5.40;;;2.33;;
30681;SDS011;17439;48.092;11.842;2023-03-19T02:55:52;3.80;;;2.42;;
30681;SDS011;17439;48.092;11.842;2023-03-19T02:58:18;4.80;;;2.20;;
30681;SDS011;17439;48.092;11.842;2023-03-19T03:00:45;3.90;;;2.47;;
30681;SDS011;17439;48.092;11.842;2023-03-19T03:03:24;7.72;;;3.60;;
30681;SDS011;17439;48.092;11.842;2023-03-19T03:05:57;5.82;;;2.35;;
30681;SDS011;17439;48.092;11.842;2023-03-19T03:08:23;4.38;;;2.45;;
30681;SDS011;17439;48.092;11.842;2023-03-19T03:10:50;5.15;;;3.25;;
30681;SDS011;17439;48.092;11.842;2023-03-19T03:13:16;6.15;;;2.35;;
30681;SDS011;17439;48.092;11.842;2023-03-19T03:15:43;9.38;;;2.80;;
30681;SDS011;17439;48.092;11.842;2023-03-19T03:18:09;4.88;;;2.60;;
30681;SDS011;17439;48.092;11.842;2023-03-19T03:20:36;6.05;;;2.90;;
30681;SDS011;17439;48.092;11.842;2023-03-19T03:23:03;5.70;;;2.92;;
30681;SDS011;17439;48.092;11.842;2023-03-19T03:25:29;7.65;;;2.90;;
30681;SDS011;17439;48.092;11.842;2023-03-19T03:27:56;8.35;;;2.70;;
30681;SDS011;17439;48.092;11.842;2023-03-19T03:30:22;8.55;;;2.85;;
30681;SDS011;17439;48.092;11.842;2023-03-19T03:32:49;3.85;;;2.45;;
30681;SDS011;17439;48.092;11.842;2023-03-19T03:35:16;8.52;;;2.42;;
30681;SDS011;17439;48.092;11.842;2023-03-19T03:37:42;7.75;;;2.10;;
30681;SDS011;17439;48.092;11.842;2023-03-19T03:40:09;5.88;;;2.17;;
30681;SDS011;17439;48.092;11.842;2023-03-19T03:42:36;7.10;;;2.60;;
30681;SDS011;17439;48.092;11.842;2023-03-19T03:45:04;3.90;;;1.90;;
30681;SDS011;17439;48.092;11.842;2023-03-19T03:47:31;4.35;;;2.10;;
30681;SDS011;17439;48.092;11.842;2023-03-19T03:49:59;5.07;;;2.35;;
30681;SDS011;17439;48.092;11.842;2023-03-19T03:52:26;4.80;;;2.60;;
30681;SDS011;17439;48.092;11.842;2023-03-19T03:54:53;3.72;;;2.30;;
30681;SDS011;17439;48.092;11.842;2023-03-19T03:57:19;8.40;;;3.10;;
30681;SDS011;17439;48.092;11.842;2023-03-19T03:59:46;6.03;;;2.65;;
30681;SDS011;17439;48.092;11.842;2023-03-19T04:02:13;6.05;;;2.97;;
30681;SDS011;17439;48.092;11.842;2023-03-19T04:04:40;6.35;;;2.90;;
30681;SDS011;17439;48.092;11.842;2023-03-19T04:07:06;5.65;;;2.30;;
30681;SDS011;17439;48.092;11.842;2023-03-19T04:09:39;4.53;;;2.60;;
30681;SDS011;17439;48.092;11.842;2023-03-19T04:12:06;7.53;;;2.13;;
30681;SDS011;17439;48.092;11.842;2023-03-19T04:14:36;5.72;;;2.40;;
30681;SDS011;17439;48.092;11.842;2023-03-19T04:17:04;8.00;;;2.70;;
30681;SDS011;17439;48.092;11.842;2023-03-19T04:19:31;8.38;;;2.42;;
30681;SDS011;17439;48.092;11.842;2023-03-19T04:21:58;6.33;;;2.83;;
30681;SDS011;17439;48.092;11.842;2023-03-19T04:24:25;6.80;;;3.03;;
30681;SDS011;17439;48.092;11.842;2023-03-19T04:26:52;7.50;;;3.92;;
30681;SDS011;17439;48.092;11.842;2023-03-19T04:29:18;4.78;;;2.40;;
30681;SDS011;17439;48.092;11.842;2023-03-19T04:31:45;4.63;;;2.35;;
30681;SDS011;17439;48.092;11.842;2023-03-19T04:34:12;9.95;;;2.60;;
30681;SDS011;17439;48.092;11.842;2023-03-19T04:36:38;5.40;;;2.20;;
30681;SDS011;17439;48.092;11.842;2023-03-19T04:39:05;4.15;;;2.30;;
30681;SDS011;17439;48.092;11.842;2023-03-19T04:41:32;5.53;;;2.17;;
30681;SDS011;17439;48.092;11.842;2023-03-19T04:44:11;6.20;;;2.55;;
30681;SDS011;17439;48.092;11.842;2023-03-19T04:46:39;6.15;;;2.50;;
30681;SDS011;17439;48.092;11.842;2023-03-19T04:49:06;6.15;;;2.95;;
30681;SDS011;17439;48.092;11.842;2023-03-19T04:51:33;6.45;;;2.50;;
30681;SDS011;17439;48.092;11.842;2023-03-19T04:54:00;5.43;;;2.08;;
30681;SDS011;17439;48.092;11.842;2023-03-19T04:56:26;4.32;;;2.63;;
30681;SDS011;17439;48.092;11.842;2023-03-19T04:58:54;4.68;;;2.58;;
30681;SDS011;17439;48.092;11.842;2023-03-19T05:01:20;5.65;;;2.88;;
30681;SDS011;17439;48.092;11.842;2023-03-19T05:03:57;5.43;;;2.22;;
30681;SDS011;17439;48.092;11.842;2023-03-19T05:06:24;4.83;;;2.60;;
30681;SDS011;17439;48.092;11.842;2023-03-19T05:08:51;7.10;;;2.80;;
30681;SDS011;17439;48.092;11.842;2023-03-19T05:11:21;5.25;;;2.22;;
30681;SDS011;17439;48.092;11.842;2023-03-19T05:14:00;5.28;;;2.70;;
30681;SDS011;17439;48.092;11.842;2023-03-19T05:16:34;7.18;;;2.97;;
30681;SDS011;17439;48.092;11.842;2023-03-19T05:19:00;6.53;;;2.55;;
30681;SDS011;17439;48.092;11.842;2023-03-19T05:23:55;6.75;;;2.92;;
30681;SDS011;17439;48.092;11.842;2023-03-19T05:26:24;5.68;;;2.83;;
30681;SDS011;17439;48.092;11.842;2023-03-19T05:29:13;4.95;;;2.85;;
30681;SDS011;17439;48.092;11.842;2023-03-19T05:31:52;6.07;;;3.42;;
30681;SDS011;17439;48.092;11.842;2023-03-19T05:34:19;3.83;;;2.28;;
30681;SDS011;17439;48.092;11.842;2023-03-19T05:36:47;12.68;;;2.80;;
30681;SDS011;17439;48.092;11.842;2023-03-19T05:39:16;6.68;;;2.58;;
30681;SDS011;17439;48.092;11.842;2023-03-19T05:41:43;5.10;;;2.13;;
30681;SDS011;17439;48.092;11.842;2023-03-19T05:44:14;4.93;;;2.58;;
30681;SDS011;17439;48.092;11.842;2023-03-19T05:46:58;5.70;;;2.58;;
30681;SDS011;17439;48.092;11.842;2023-03-19T05:49:29;8.73;;;2.53;;
30681;SDS011;17439;48.092;11.842;2023-03-19T05:51:55;7.28;;;2.80;;
30681;SDS011;17439;48.092;11.842;2023-03-19T05:54:22;7.22;;;2.97;;
30681;SDS011;17439;48.092;11.842;2023-03-19T05:56:55;5.00;;;2.45;;
30681;SDS011;17439;48.092;11.842;2023-03-19T05:59:41;5.70;;;2.55;;
30681;SDS011;17439;48.092;11.842;2023-03-19T06:02:39;6.68;;;2.40;;
30681;SDS011;17439;48.092;11.842;2023-03-19T06:05:26;4.15;;;2.10;;
30681;SDS011;17439;48.092;11.842;2023-03-19T06:07:57;6.95;;;3.03;;
30681;SDS011;17439;48.092;11.842;2023-03-19T06:10:48;4.93;;;2.67;;
30681;SDS011;17439;48.092;11.842;2023-03-19T06:13:15;8.38;;;2.38;;
30681;SDS011;17439;48.092;11.842;2023-03-19T06:15:50;6.90;;;2.70;;
30681;SDS011;17439;48.092;11.842;2023-03-19T06:18:35;7.90;;;2.58;;
30681;SDS011;17439;48.092;11.842;2023-03-19T06:21:07;4.05;;;2.88;;
30681;SDS011;17439;48.092;11.842;2023-03-19T06:23:33;5.65;;;2.42;;
30681;SDS011;17439;48.092;11.842;2023-03-19T06:26:02;5.60;;;2.97;;
30681;SDS011;17439;48.092;11.842;2023-03-19T06:28:33;6.13;;;3.40;;
30681;SDS011;17439;48.092;11.842;2023-03-19T06:31:02;6.18;;;3.13;;
30681;SDS011;17439;48.092;11.842;2023-03-19T06:33:46;5.55;;;3.47;;
30681;SDS011;17439;48.092;11.842;2023-03-19T06:36:13;7.53;;;4.32;;
30681;SDS011;17439;48.092;11.842;2023-03-19T06:38:40;8.15;;;3.38;;
30681;SDS011;17439;48.092;11.842;2023-03-19T06:41:06;7.05;;;3.40;;
30681;SDS011;17439;48.092;11.842;2023-03-19T06:43:33;6.75;;;3.42;;
30681;SDS011;17439;48.092;11.842;2023-03-19T06:45:59;8.05;;;3.70;;
30681;SDS011;17439;48.092;11.842;2023-03-19T06:48:26;6.22;;;3.38;;
30681;SDS011;17439;48.092;11.842;2023-03-19T06:50:52;8.93;;;3.42;;
30681;SDS011;17439;48.092;11.842;2023-03-19T06:53:19;7.35;;;4.15;;
30681;SDS011;17439;48.092;11.842;2023-03-19T06:55:46;6.82;;;3.50;;
30681;SDS011;17439;48.092;11.842;2023-03-19T06:58:12;7.38;;;3.35;;
30681;SDS011;17439;48.092;11.842;2023-03-19T07:00:39;6.47;;;3.67;;
30681;SDS011;17439;48.092;11.842;2023-03-19T07:03:05;6.78;;;3.42;;
30681;SDS011;17439;48.092;11.842;2023-03-19T07:05:32;5.20;;;3.08;;
30681;SDS011;17439;48.092;11.842;2023-03-19T07:07:58;8.18;;;3.92;;
30681;SDS011;17439;48.092;11.842;2023-03-19T07:10:25;9.18;;;4.43;;
30681;SDS011;17439;48.092;11.842;2023-03-19T07:12:51;5.63;;;3.70;;
30681;SDS011;17439;48.092;11.842;2023-03-19T07:15:18;7.15;;;3.70;;
30681;SDS011;17439;48.092;11.842;2023-03-19T07:17:45;6.15;;;3.65;;
30681;SDS011;17439;48.092;11.842;2023-03-19T07:20:12;10.02;;;4.05;;
30681;SDS011;17439;48.092;11.842;2023-03-19T07:22:39;6.80;;;4.18;;
30681;SDS011;17439;48.092;11.842;2023-03-19T07:25:06;8.13;;;3.93;;
30681;SDS011;17439;48.092;11.842;2023-03-19T07:27:33;8.70;;;3.78;;
30681;SDS011;17439;48.092;11.842;2023-03-19T07:29:59;9.80;;;4.45;;
30681;SDS011;17439;48.092;11.842;2023-03-19T07:32:26;7.15;;;4.38;;
30681;SDS011;17439;48.092;11.842;2023-03-19T07:34:52;7.80;;;3.65;;
30681;SDS011;17439;48.092;11.842;2023-03-19T07:37:19;5.07;;;3.30;;
30681;SDS011;17439;48.092;11.842;2023-03-19T07:39:47;8.43;;;4.40;;
30681;SDS011;17439;48.092;11.842;2023-03-19T07:42:14;10.32;;;3.90;;
30681;SDS011;17439;48.092;11.842;2023-03-19T07:44:41;5.97;;;3.38;;
30681;SDS011;17439;48.092;11.842;2023-03-19T07:47:07;9.38;;;4.60;;
30681;SDS011;17439;48.092;11.842;2023-03-19T07:49:53;7.80;;;4.45;;
30681;SDS011;17439;48.092;11.842;2023-03-19T07:52:20;12.00;;;5.72;;
30681;SDS011;17439;48.092;11.842;2023-03-19T07:54:46;11.85;;;5.70;;
30681;SDS011;17439;48.092;11.842;2023-03-19T07:57:13;9.13;;;4.50;;
30681;SDS011;17439;48.092;11.842;2023-03-19T07:59:39;8.38;;;4.15;;
30681;SDS011;17439;48.092;11.842;2023-03-19T08:02:08;8.07;;;3.80;;
30681;SDS011;17439;48.092;11.842;2023-03-19T08:04:37;8.38;;;3.90;;
30681;SDS011;17439;48.092;11.842;2023-03-19T08:07:03;7.93;;;3.70;;
30681;SDS011;17439;48.092;11.842;2023-03-19T08:09:30;9.07;;;4.05;;
30681;SDS011;17439;48.092;11.842;2023-03-19T08:11:57;10.00;;;3.30;;
30681;SDS011;17439;48.092;11.842;2023-03-19T08:14:23;6.55;;;3.75;;
30681;SDS011;17439;48.092;11.842;2023-03-19T08:16:50;8.13;;;3.95;;
30681;SDS011;17439;48.092;11.842;2023-03-19T08:19:17;7.22;;;3.55;;
30681;SDS011;17439;48.092;11.842;2023-03-19T08:21:43;7.32;;;3.90;;
30681;SDS011;17439;48.092;11.842;2023-03-19T08:24:09;6.07;;;3.20;;
30681;SDS011;17439;48.092;11.842;2023-03-19T08:26:36;7.13;;;3.15;;
30681;SDS011;17439;48.092;11.842;2023-03-19T08:29:03;9.38;;;3.85;;
30681;SDS011;17439;48.092;11.842;2023-03-19T08:31:29;5.82;;;3.20;;
30681;SDS011;17439;48.092;11.842;2023-03-19T08:33:56;8.77;;;3.40;;
30681;SDS011;17439;48.092;11.842;2023-03-19T08:36:22;6.10;;;3.20;;
30681;SDS011;17439;48.092;11.842;2023-03-19T08:38:49;3.85;;;2.67;;
30681;SDS011;17439;48.092;11.842;2023-03-19T08:41:15;4.95;;;2.72;;
30681;SDS011;17439;48.092;11.842;2023-03-19T08:43:42;5.10;;;2.90;;
30681;SDS011;17439;48.092;11.842;2023-03-19T08:46:08;3.88;;;2.40;;
30681;SDS011;17439;48.092;11.842;2023-03-19T08:48:35;5.65;;;2.75;;
30681;SDS011;17439;48.092;11.842;2023-03-19T08:51:01;6.43;;;3.08;;
30681;SDS011;17439;48.092;11.842;2023-03-19T08:53:29;5.82;;;3.17;;
30681;SDS011;17439;48.092;11.842;2023-03-19T08:55:57;5.65;;;3.17;;
30681;SDS011;17439;48.092;11.842;2023-03-19T08:58:26;6.95;;;2.70;;
30681;SDS011;17439;48.092;11.842;2023-03-19T09:00:59;6.60;;;2.55;;
30681;SDS011;17439;48.092;11.842;2023-03-19T09:03:36;4.53;;;2.60;;
30681;SDS011;17439;48.092;11.842;2023-03-19T09:06:05;4.70;;;2.60;;
30681;SDS011;17439;48.092;11.842;2023-03-19T09:08:33;15.55;;;2.42;;
30681;SDS011;17439;48.092;11.842;2023-03-19T09:11:01;5.30;;;2.60;;
30681;SDS011;17439;48.092;11.842;2023-03-19T09:13:29;5.68;;;2.92;;
30681;SDS011;17439;48.092;11.842;2023-03-19T09:15:56;4.72;;;3.17;;
30681;SDS011;17439;48.092;11.842;2023-03-19T09:18:22;5.55;;;2.85;;
30681;SDS011;17439;48.092;11.842;2023-03-19T09:20:50;3.80;;;2.40;;
30681;SDS011;17439;48.092;11.842;2023-03-19T09:23:17;3.07;;;2.27;;
30681;SDS011;17439;48.092;11.842;2023-03-19T09:25:43;9.20;;;3.50;;
30681;SDS011;17439;48.092;11.842;2023-03-19T09:28:10;7.60;;;2.67;;
30681;SDS011;17439;48.092;11.842;2023-03-19T09:30:37;7.70;;;2.75;;
30681;SDS011;17439;48.092;11.842;2023-03-19T09:33:04;4.27;;;2.10;;
30681;SDS011;17439;48.092;11.842;2023-03-19T09:35:31;4.35;;;3.15;;
30681;SDS011;17439;48.092;11.842;2023-03-19T09:38:01;3.65;;;1.95;;
30681;SDS011;17439;48.092;11.842;2023-03-19T09:40:29;8.57;;;2.92;;
30681;SDS011;17439;48.092;11.842;2023-03-19T09:43:27;9.23;;;2.67;;
30681;SDS011;17439;48.092;11.842;2023-03-19T09:46:17;3.72;;;2.20;;
30681;SDS011;17439;48.092;11.842;2023-03-19T09:51:20;3.65;;;2.25;;
30681;SDS011;17439;48.092;11.842;2023-03-19T09:53:59;16.77;;;6.95;;
30681;SDS011;17439;48.092;11.842;2023-03-19T09:56:32;4.80;;;2.47;;
30681;SDS011;17439;48.092;11.842;2023-03-19T09:58:59;2.78;;;2.15;;
30681;SDS011;17439;48.092;11.842;2023-03-19T10:01:32;5.80;;;2.30;;
30681;SDS011;17439;48.092;11.842;2023-03-19T10:06:43;5.57;;;2.58;;
30681;SDS011;17439;48.092;11.842;2023-03-19T10:09:13;3.70;;;2.13;;
30681;SDS011;17439;48.092;11.842;2023-03-19T10:17:09;3.47;;;1.88;;
30681;SDS011;17439;48.092;11.842;2023-03-19T10:19:44;4.93;;;2.30;;
30681;SDS011;17439;48.092;11.842;2023-03-19T10:22:18;7.25;;;2.30;;
30681;SDS011;17439;48.092;11.842;2023-03-19T10:24:50;4.07;;;2.03;;
30681;SDS011;17439;48.092;11.842;2023-03-19T10:27:19;3.80;;;2.08;;
30681;SDS011;17439;48.092;11.842;2023-03-19T10:29:47;3.53;;;2.25;;
30681;SDS011;17439;48.092;11.842;2023-03-19T10:32:16;4.97;;;2.03;;
30681;SDS011;17439;48.092;11.842;2023-03-19T10:39:38;3.72;;;1.98;;
30681;SDS011;17439;48.092;11.842;2023-03-19T10:44:35;4.97;;;2.30;;
30681;SDS011;17439;48.092;11.842;2023-03-19T10:47:11;3.38;;;2.08;;
30681;SDS011;17439;48.092;11.842;2023-03-19T10:49:40;7.05;;;1.90;;
30681;SDS011;17439;48.092;11.842;2023-03-19T10:52:17;5.40;;;2.20;;
30681;SDS011;17439;48.092;11.842;2023-03-19T10:54:55;4.13;;;1.75;;
30681;SDS011;17439;48.092;11.842;2023-03-19T10:57:29;10.20;;;4.63;;
30681;SDS011;17439;48.092;11.842;2023-03-19T11:00:00;7.45;;;3.95;;
30681;SDS011;17439;48.092;11.842;2023-03-19T11:02:30;7.18;;;3.85;;
30681;SDS011;17439;48.092;11.842;2023-03-19T11:08:06;8.60;;;4.72;;
30681;SDS011;17439;48.092;11.842;2023-03-19T11:11:00;6.38;;;2.67;;
30681;SDS011;17439;48.092;11.842;2023-03-19T11:13:27;5.05;;;2.75;;
30681;SDS011;17439;48.092;11.842;2023-03-19T11:15:56;6.45;;;2.88;;
30681;SDS011;17439;48.092;11.842;2023-03-19T11:18:28;3.92;;;2.20;;
30681;SDS011;17439;48.092;11.842;2023-03-19T11:21:13;6.55;;;3.00;;
30681;SDS011;17439;48.092;11.842;2023-03-19T11:23:50;4.65;;;2.30;;
30681;SDS011;17439;48.092;11.842;2023-03-19T11:26:28;4.22;;;2.17;;
30681;SDS011;17439;48.092;11.842;2023-03-19T11:29:00;4.15;;;1.90;;
30681;SDS011;17439;48.092;11.842;2023-03-19T11:31:33;3.63;;;2.03;;
30681;SDS011;17439;48.092;11.842;2023-03-19T11:42:55;4.75;;;2.60;;
30681;SDS011;17439;48.092;11.842;2023-03-19T11:54:10;3.20;;;2.17;;
30681;SDS011;17439;48.092;11.842;2023-03-19T11:57:03;5.38;;;2.40;;
30681;SDS011;17439;48.092;11.842;2023-03-19T12:00:08;24.38;;;12.88;;
30681;SDS011;17439;48.092;11.842;2023-03-19T12:02:56;6.97;;;3.33;;
30681;SDS011;17439;48.092;11.842;2023-03-19T12:05:32;3.85;;;2.10;;
30681;SDS011;17439;48.092;11.842;2023-03-19T12:08:29;5.57;;;1.60;;
30681;SDS011;17439;48.092;11.842;2023-03-19T12:16:49;3.63;;;1.70;;
30681;SDS011;17439;48.092;11.842;2023-03-19T12:22:34;4.35;;;2.45;;
30681;SDS011;17439;48.092;11.842;2023-03-19T12:25:28;3.17;;;1.92;;
30681;SDS011;17439;48.092;11.842;2023-03-19T12:28:01;2.33;;;1.58;;
30681;SDS011;17439;48.092;11.842;2023-03-19T12:30:35;2.65;;;1.50;;
30681;SDS011;17439;48.092;11.842;2023-03-19T12:35:54;2.92;;;1.52;;
30681;SDS011;17439;48.092;11.842;2023-03-19T12:38:23;3.65;;;1.67;;
30681;SDS011;17439;48.092;11.842;2023-03-19T12:41:08;4.43;;;1.77;;
30681;SDS011;17439;48.092;11.842;2023-03-19T12:46:41;4.78;;;1.90;;
30681;SDS011;17439;48.092;11.842;2023-03-19T12:49:25;7.35;;;3.42;;
30681;SDS011;17439;48.092;11.842;2023-03-19T12:52:02;6.20;;;3.08;;
30681;SDS011;17439;48.092;11.842;2023-03-19T12:54:40;4.95;;;1.70;;
30681;SDS011;17439;48.092;11.842;2023-03-19T12:57:32;8.32;;;1.88;;
30681;SDS011;17439;48.092;11.842;2023-03-19T13:00:21;3.55;;;1.70;;
30681;SDS011;17439;48.092;11.842;2023-03-19T13:03:32;3.72;;;1.75;;
30681;SDS011;17439;48.092;11.842;2023-03-19T13:08:58;3.17;;;1.60;;
30681;SDS011;17439;48.092;11.842;2023-03-19T13:11:44;4.47;;;2.00;;
30681;SDS011;17439;48.092;11.842;2023-03-19T13:14:16;4.90;;;2.05;;
30681;SDS011;17439;48.092;11.842;2023-03-19T13:22:13;4.40;;;2.22;;
30681;SDS011;17439;48.092;11.842;2023-03-19T13:24:42;3.40;;;2.13;;
30681;SDS011;17439;48.092;11.842;2023-03-19T13:27:17;1.92;;;1.55;;
30681;SDS011;17439;48.092;11.842;2023-03-19T13:29:55;4.68;;;1.88;;
30681;SDS011;17439;48.092;11.842;2023-03-19T13:32:29;3.25;;;1.35;;
30681;SDS011;17439;48.092;11.842;2023-03-19T13:35:08;1.75;;;1.35;;
30681;SDS011;17439;48.092;11.842;2023-03-19T13:37:44;2.95;;;1.50;;
30681;SDS011;17439;48.092;11.842;2023-03-19T13:46:04;3.65;;;1.35;;
30681;SDS011;17439;48.092;11.842;2023-03-19T13:49:01;3.03;;;1.30;;
30681;SDS011;17439;48.092;11.842;2023-03-19T13:51:35;4.88;;;1.50;;
30681;SDS011;17439;48.092;11.842;2023-03-19T13:56:54;5.97;;;1.95;;
30681;SDS011;17439;48.092;11.842;2023-03-19T13:59:24;4.10;;;1.88;;
30681;SDS011;17439;48.092;11.842;2023-03-19T14:05:03;6.32;;;1.90;;
30681;SDS011;17439;48.092;11.842;2023-03-19T14:07:34;4.35;;;2.30;;
30681;SDS011;17439;48.092;11.842;2023-03-19T14:13:06;4.97;;;2.40;;
30681;SDS011;17439;48.092;11.842;2023-03-19T14:15:37;3.47;;;1.75;;
30681;SDS011;17439;48.092;11.842;2023-03-19T14:18:09;4.18;;;2.10;;
30681;SDS011;17439;48.092;11.842;2023-03-19T14:20:43;3.70;;;1.90;;
30681;SDS011;17439;48.092;11.842;2023-03-19T14:23:18;8.50;;;2.70;;
30681;SDS011;17439;48.092;11.842;2023-03-19T14:31:30;2.25;;;1.45;;
30681;SDS011;17439;48.092;11.842;2023-03-19T14:42:36;3.60;;;1.90;;
30681;SDS011;17439;48.092;11.842;2023-03-19T14:45:16;1.95;;;1.23;;
30681;SDS011;17439;48.092;11.842;2023-03-19T14:56:12;5.30;;;1.45;;
30681;SDS011;17439;48.092;11.842;2023-03-19T14:58:46;2.60;;;1.45;;
30681;SDS011;17439;48.092;11.842;2023-03-19T15:01:23;1.95;;;1.20;;
30681;SDS011;17439;48.092;11.842;2023-03-19T15:03:55;2.72;;;1.55;;
30681;SDS011;17439;48.092;11.842;2023-03-19T15:06:26;3.42;;;1.30;;
30681;SDS011;17439;48.092;11.842;2023-03-19T15:08:58;5.53;;;1.80;;
30681;SDS011;17439;48.092;11.842;2023-03-19T15:11:32;2.67;;;1.40;;
30681;SDS011;17439;48.092;11.842;2023-03-19T15:17:17;4.00;;;1.52;;
30681;SDS011;17439;48.092;11.842;2023-03-19T15:19:49;4.50;;;1.98;;
30681;SDS011;17439;48.092;11.842;2023-03-19T15:22:19;4.97;;;1.73;;
30681;SDS011;17439;48.092;11.842;2023-03-19T15:24:47;2.67;;;1.40;;
30681;SDS011;17439;48.092;11.842;2023-03-19T15:27:21;2.45;;;1.38;;
30681;SDS011;17439;48.092;11.842;2023-03-19T15:29:49;5.35;;;2.05;;
30681;SDS011;17439;48.092;11.842;2023-03-19T15:32:29;3.70;;;2.10;;
30681;SDS011;17439;48.092;11.842;2023-03-19T15:35:18;2.50;;;1.50;;
30681;SDS011;17439;48.092;11.842;2023-03-19T15:37:48;7.88;;;2.10;;
30681;SDS011;17439;48.092;11.842;2023-03-19T15:40:18;3.65;;;2.22;;
30681;SDS011;17439;48.092;11.842;2023-03-19T15:42:46;2.42;;;1.48;;
30681;SDS011;17439;48.092;11.842;2023-03-19T15:45:14;4.47;;;2.45;;
30681;SDS011;17439;48.092;11.842;2023-03-19T15:50:23;3.50;;;1.77;;
30681;SDS011;17439;48.092;11.842;2023-03-19T15:52:55;5.68;;;1.80;;
30681;SDS011;17439;48.092;11.842;2023-03-19T15:55:24;4.25;;;1.40;;
30681;SDS011;17439;48.092;11.842;2023-03-19T15:57:51;6.88;;;2.63;;
30681;SDS011;17439;48.092;11.842;2023-03-19T16:00:20;2.75;;;1.42;;
30681;SDS011;17439;48.092;11.842;2023-03-19T16:02:48;23.05;;;9.30;;
30681;SDS011;17439;48.092;11.842;2023-03-19T16:05:26;5.97;;;2.97;;
30681;SDS011;17439;48.092;11.842;2023-03-19T16:07:59;5.47;;;1.50;;
30681;SDS011;17439;48.092;11.842;2023-03-19T16:12:54;4.25;;;1.80;;
30681;SDS011;17439;48.092;11.842;2023-03-19T16:18:08;5.00;;;2.42;;
30681;SDS011;17439;48.092;11.842;2023-03-19T16:23:35;1.45;;;1.25;;
30681;SDS011;17439;48.092;11.842;2023-03-19T16:26:14;2.72;;;1.27;;
30681;SDS011;17439;48.092;11.842;2023-03-19T16:29:02;2.55;;;1.38;;
30681;SDS011;17439;48.092;11.842;2023-03-19T16:31:43;3.78;;;1.80;;
30681;SDS011;17439;48.092;11.842;2023-03-19T16:34:20;4.47;;;1.35;;
30681;SDS011;17439;48.092;11.842;2023-03-19T16:36:49;2.65;;;1.45;;
30681;SDS011;17439;48.092;11.842;2023-03-19T16:44:37;2.00;;;1.08;;
30681;SDS011;17439;48.092;11.842;2023-03-19T16:47:12;1.77;;;0.70;;
30681;SDS011;17439;48.092;11.842;2023-03-19T16:49:40;2.90;;;1.00;;
30681;SDS011;17439;48.092;11.842;2023-03-19T16:52:14;1.63;;;0.70;;
30681;SDS011;17439;48.092;11.842;2023-03-19T16:54:44;2.85;;;0.70;;
30681;SDS011;17439;48.092;11.842;2023-03-19T16:57:11;2.17;;;1.30;;
30681;SDS011;17439;48.092;11.842;2023-03-19T16:59:41;3.00;;;0.88;;